sensor_id;sensor_type;location;lat;lon;timestamp;temperature;humidity
27188;DHT22;14708;50.872;5.306;2022-10-23T00:01:21;21.80;73.50
27188;DHT22;14708;50.872;5.306;2022-10-23T00:03:52;21.70;73.50
27188;DHT22;14708;50.872;5.306;2022-10-23T00:06:18;21.70;73.40
27188;DHT22;14708;50.872;5.306;2022-10-23T00:08:45;21.70;73.50
27188;DHT22;14708;50.872;5.306;2022-10-23T00:11:14;21.70;73.60
27188;DHT22;14708;50.872;5.306;2022-10-23T00:13:40;21.70;73.40
27188;DHT22;14708;50.872;5.306;2022-10-23T00:16:07;21.70;73.40
27188;DHT22;14708;50.872;5.306;2022-10-23T00:18:32;21.70;73.50
27188;DHT22;14708;50.872;5.306;2022-10-23T00:20:59;21.70;73.60
27188;DHT22;14708;50.872;5.306;2022-10-23T00:23:24;21.60;73.50
27188;DHT22;14708;50.872;5.306;2022-10-23T00:25:50;21.70;73.60
27188;DHT22;14708;50.872;5.306;2022-10-23T00:28:16;21.70;73.50
27188;DHT22;14708;50.872;5.306;2022-10-23T00:30:41;21.60;73.60
27188;DHT22;14708;50.872;5.306;2022-10-23T00:33:07;21.60;73.80
27188;DHT22;14708;50.872;5.306;2022-10-23T00:35:33;21.60;73.50
27188;DHT22;14708;50.872;5.306;2022-10-23T00:37:59;21.60;73.80
27188;DHT22;14708;50.872;5.306;2022-10-23T00:40:24;21.60;73.90
27188;DHT22;14708;50.872;5.306;2022-10-23T00:42:50;21.60;73.70
27188;DHT22;14708;50.872;5.306;2022-10-23T00:45:24;21.60;73.60
27188;DHT22;14708;50.872;5.306;2022-10-23T00:47:51;21.60;73.70
27188;DHT22;14708;50.872;5.306;2022-10-23T00:50:18;21.60;73.70
27188;DHT22;14708;50.872;5.306;2022-10-23T00:52:47;21.60;73.20
27188;DHT22;14708;50.872;5.306;2022-10-23T00:55:15;21.50;73.20
27188;DHT22;14708;50.872;5.306;2022-10-23T00:57:42;21.60;73.30
27188;DHT22;14708;50.872;5.306;2022-10-23T01:00:13;21.50;73.40
27188;DHT22;14708;50.872;5.306;2022-10-23T01:02:40;21.50;73.30
27188;DHT22;14708;50.872;5.306;2022-10-23T01:05:06;21.50;73.30
27188;DHT22;14708;50.872;5.306;2022-10-23T01:07:42;21.50;73.30
27188;DHT22;14708;50.872;5.306;2022-10-23T01:10:33;21.50;73.20
27188;DHT22;14708;50.872;5.306;2022-10-23T01:13:20;21.50;73.20
27188;DHT22;14708;50.872;5.306;2022-10-23T01:16:04;21.50;73.10
27188;DHT22;14708;50.872;5.306;2022-10-23T01:21:17;21.50;73.20
27188;DHT22;14708;50.872;5.306;2022-10-23T01:29:27;21.50;73.50
27188;DHT22;14708;50.872;5.306;2022-10-23T01:34:38;21.50;73.40
27188;DHT22;14708;50.872;5.306;2022-10-23T01:37:10;21.50;73.30
27188;DHT22;14708;50.872;5.306;2022-10-23T01:39:43;21.50;73.30
27188;DHT22;14708;50.872;5.306;2022-10-23T01:42:14;21.50;73.40
27188;DHT22;14708;50.872;5.306;2022-10-23T01:44:50;21.40;73.50
27188;DHT22;14708;50.872;5.306;2022-10-23T01:47:22;21.50;73.60
27188;DHT22;14708;50.872;5.306;2022-10-23T01:49:50;21.40;73.30
27188;DHT22;14708;50.872;5.306;2022-10-23T01:52:17;21.40;73.50
27188;DHT22;14708;50.872;5.306;2022-10-23T01:54:45;21.40;73.60
27188;DHT22;14708;50.872;5.306;2022-10-23T01:57:15;21.40;73.40
27188;DHT22;14708;50.872;5.306;2022-10-23T01:59:46;21.40;73.40
27188;DHT22;14708;50.872;5.306;2022-10-23T02:02:14;21.40;73.20
27188;DHT22;14708;50.872;5.306;2022-10-23T02:04:48;21.40;73.30
27188;DHT22;14708;50.872;5.306;2022-10-23T02:07:15;21.40;73.20
27188;DHT22;14708;50.872;5.306;2022-10-23T02:09:41;21.40;73.30
27188;DHT22;14708;50.872;5.306;2022-10-23T02:12:09;21.40;73.30
27188;DHT22;14708;50.872;5.306;2022-10-23T02:14:49;21.40;73.30
27188;DHT22;14708;50.872;5.306;2022-10-23T02:20:46;21.30;73.30
27188;DHT22;14708;50.872;5.306;2022-10-23T02:25:50;21.40;73.50
27188;DHT22;14708;50.872;5.306;2022-10-23T02:28:23;21.40;73.30
27188;DHT22;14708;50.872;5.306;2022-10-23T02:30:50;21.40;73.40
27188;DHT22;14708;50.872;5.306;2022-10-23T02:33:17;21.30;73.10
27188;DHT22;14708;50.872;5.306;2022-10-23T02:35:44;21.30;73.10
27188;DHT22;14708;50.872;5.306;2022-10-23T02:41:00;21.40;73.40
27188;DHT22;14708;50.872;5.306;2022-10-23T02:43:39;21.30;73.40
27188;DHT22;14708;50.872;5.306;2022-10-23T02:46:24;21.30;73.10
27188;DHT22;14708;50.872;5.306;2022-10-23T02:52:01;21.30;73.30
27188;DHT22;14708;50.872;5.306;2022-10-23T02:57:21;21.30;72.90
27188;DHT22;14708;50.872;5.306;2022-10-23T03:00:13;21.30;73.20
27188;DHT22;14708;50.872;5.306;2022-10-23T03:02:43;21.30;73.00
27188;DHT22;14708;50.872;5.306;2022-10-23T03:05:13;21.30;73.00
27188;DHT22;14708;50.872;5.306;2022-10-23T03:07:39;21.30;73.10
27188;DHT22;14708;50.872;5.306;2022-10-23T03:10:07;21.30;73.10
27188;DHT22;14708;50.872;5.306;2022-10-23T03:12:33;21.30;73.00
27188;DHT22;14708;50.872;5.306;2022-10-23T03:14:59;21.30;73.10
27188;DHT22;14708;50.872;5.306;2022-10-23T03:17:24;21.30;73.00
27188;DHT22;14708;50.872;5.306;2022-10-23T03:19:50;21.30;73.30
27188;DHT22;14708;50.872;5.306;2022-10-23T03:22:16;21.30;73.90
27188;DHT22;14708;50.872;5.306;2022-10-23T03:24:42;21.30;73.20
27188;DHT22;14708;50.872;5.306;2022-10-23T03:27:07;21.30;73.00
27188;DHT22;14708;50.872;5.306;2022-10-23T03:29:33;21.20;73.20
27188;DHT22;14708;50.872;5.306;2022-10-23T03:31:58;21.30;72.90
27188;DHT22;14708;50.872;5.306;2022-10-23T03:34:24;21.20;72.90
27188;DHT22;14708;50.872;5.306;2022-10-23T03:36:50;21.30;72.90
27188;DHT22;14708;50.872;5.306;2022-10-23T03:39:16;21.20;73.00
27188;DHT22;14708;50.872;5.306;2022-10-23T03:41:41;21.20;72.90
27188;DHT22;14708;50.872;5.306;2022-10-23T03:44:07;21.30;72.90
27188;DHT22;14708;50.872;5.306;2022-10-23T03:46:33;21.20;73.00
27188;DHT22;14708;50.872;5.306;2022-10-23T03:48:58;21.20;72.90
27188;DHT22;14708;50.872;5.306;2022-10-23T03:51:25;21.20;72.90
27188;DHT22;14708;50.872;5.306;2022-10-23T03:53:51;21.20;73.00
27188;DHT22;14708;50.872;5.306;2022-10-23T03:56:16;21.20;73.00
27188;DHT22;14708;50.872;5.306;2022-10-23T03:58:42;21.20;73.00
27188;DHT22;14708;50.872;5.306;2022-10-23T04:01:08;21.20;73.10
27188;DHT22;14708;50.872;5.306;2022-10-23T04:03:33;21.20;73.10
27188;DHT22;14708;50.872;5.306;2022-10-23T04:05:59;21.20;73.20
27188;DHT22;14708;50.872;5.306;2022-10-23T04:08:25;21.20;73.00
27188;DHT22;14708;50.872;5.306;2022-10-23T04:10:50;21.20;73.20
27188;DHT22;14708;50.872;5.306;2022-10-23T04:13:16;21.20;73.20
27188;DHT22;14708;50.872;5.306;2022-10-23T04:15:47;21.20;73.10
27188;DHT22;14708;50.872;5.306;2022-10-23T04:18:13;21.20;73.00
27188;DHT22;14708;50.872;5.306;2022-10-23T04:20:39;21.20;73.20
27188;DHT22;14708;50.872;5.306;2022-10-23T04:23:04;21.20;73.10
27188;DHT22;14708;50.872;5.306;2022-10-23T04:25:30;21.20;73.20
27188;DHT22;14708;50.872;5.306;2022-10-23T04:27:56;21.20;73.10
27188;DHT22;14708;50.872;5.306;2022-10-23T04:30:21;21.10;72.90
27188;DHT22;14708;50.872;5.306;2022-10-23T04:32:50;21.20;73.20
27188;DHT22;14708;50.872;5.306;2022-10-23T04:35:17;21.20;73.20
27188;DHT22;14708;50.872;5.306;2022-10-23T04:37:42;21.20;72.60
27188;DHT22;14708;50.872;5.306;2022-10-23T04:40:08;21.20;72.50
27188;DHT22;14708;50.872;5.306;2022-10-23T04:42:34;21.20;72.60
27188;DHT22;14708;50.872;5.306;2022-10-23T04:45:00;21.20;72.70
27188;DHT22;14708;50.872;5.306;2022-10-23T04:47:25;21.20;72.40
27188;DHT22;14708;50.872;5.306;2022-10-23T04:49:51;21.20;72.50
27188;DHT22;14708;50.872;5.306;2022-10-23T04:52:16;21.20;72.60
27188;DHT22;14708;50.872;5.306;2022-10-23T04:54:42;21.30;72.10
27188;DHT22;14708;50.872;5.306;2022-10-23T04:57:07;21.30;72.10
27188;DHT22;14708;50.872;5.306;2022-10-23T04:59:33;21.20;72.40
27188;DHT22;14708;50.872;5.306;2022-10-23T05:01:59;21.20;72.80
27188;DHT22;14708;50.872;5.306;2022-10-23T05:04:24;21.20;72.80
27188;DHT22;14708;50.872;5.306;2022-10-23T05:06:50;21.10;72.80
27188;DHT22;14708;50.872;5.306;2022-10-23T05:09:16;21.10;72.70
27188;DHT22;14708;50.872;5.306;2022-10-23T05:11:41;21.10;72.80
27188;DHT22;14708;50.872;5.306;2022-10-23T05:14:07;21.10;72.70
27188;DHT22;14708;50.872;5.306;2022-10-23T05:16:49;21.10;72.80
27188;DHT22;14708;50.872;5.306;2022-10-23T05:19:21;21.10;72.70
27188;DHT22;14708;50.872;5.306;2022-10-23T05:21:49;21.10;72.50
27188;DHT22;14708;50.872;5.306;2022-10-23T05:24:23;21.10;71.90
27188;DHT22;14708;50.872;5.306;2022-10-23T05:26:50;21.10;71.20
27188;DHT22;14708;50.872;5.306;2022-10-23T05:29:18;21.10;72.40
27188;DHT22;14708;50.872;5.306;2022-10-23T05:31:44;21.10;72.60
27188;DHT22;14708;50.872;5.306;2022-10-23T05:34:12;21.10;72.40
27188;DHT22;14708;50.872;5.306;2022-10-23T05:36:39;21.10;72.30
27188;DHT22;14708;50.872;5.306;2022-10-23T05:39:04;21.10;72.50
27188;DHT22;14708;50.872;5.306;2022-10-23T05:41:30;21.10;72.40
27188;DHT22;14708;50.872;5.306;2022-10-23T05:43:56;21.10;73.30
27188;DHT22;14708;50.872;5.306;2022-10-23T05:46:21;21.10;72.60
27188;DHT22;14708;50.872;5.306;2022-10-23T05:48:50;21.00;72.50
27188;DHT22;14708;50.872;5.306;2022-10-23T05:51:16;21.00;72.80
27188;DHT22;14708;50.872;5.306;2022-10-23T05:53:47;21.00;72.70
27188;DHT22;14708;50.872;5.306;2022-10-23T05:56:12;21.00;72.50
27188;DHT22;14708;50.872;5.306;2022-10-23T05:58:38;21.00;72.60
27188;DHT22;14708;50.872;5.306;2022-10-23T06:01:06;21.00;72.70
27188;DHT22;14708;50.872;5.306;2022-10-23T06:03:32;21.00;72.60
27188;DHT22;14708;50.872;5.306;2022-10-23T06:05:58;21.00;72.80
27188;DHT22;14708;50.872;5.306;2022-10-23T06:08:24;21.00;72.70
27188;DHT22;14708;50.872;5.306;2022-10-23T06:10:49;21.00;72.60
27188;DHT22;14708;50.872;5.306;2022-10-23T06:13:15;21.10;72.20
27188;DHT22;14708;50.872;5.306;2022-10-23T06:15:40;21.00;72.40
27188;DHT22;14708;50.872;5.306;2022-10-23T06:18:06;21.00;72.40
27188;DHT22;14708;50.872;5.306;2022-10-23T06:20:35;21.00;72.40
27188;DHT22;14708;50.872;5.306;2022-10-23T06:23:01;21.00;72.50
27188;DHT22;14708;50.872;5.306;2022-10-23T06:25:27;21.00;72.40
27188;DHT22;14708;50.872;5.306;2022-10-23T06:27:52;21.00;72.50
27188;DHT22;14708;50.872;5.306;2022-10-23T06:30:18;21.00;72.70
27188;DHT22;14708;50.872;5.306;2022-10-23T06:32:43;21.00;72.60
27188;DHT22;14708;50.872;5.306;2022-10-23T06:35:09;21.10;72.40
27188;DHT22;14708;50.872;5.306;2022-10-23T06:37:35;21.20;72.30
27188;DHT22;14708;50.872;5.306;2022-10-23T06:40:00;21.20;72.10
27188;DHT22;14708;50.872;5.306;2022-10-23T06:42:26;21.30;72.20
27188;DHT22;14708;50.872;5.306;2022-10-23T06:44:51;21.30;72.30
27188;DHT22;14708;50.872;5.306;2022-10-23T06:47:17;21.40;72.50
27188;DHT22;14708;50.872;5.306;2022-10-23T06:49:42;21.40;72.30
27188;DHT22;14708;50.872;5.306;2022-10-23T06:52:08;21.40;72.10
27188;DHT22;14708;50.872;5.306;2022-10-23T06:54:34;21.50;72.10
27188;DHT22;14708;50.872;5.306;2022-10-23T06:56:59;21.50;72.00
27188;DHT22;14708;50.872;5.306;2022-10-23T06:59:25;21.50;71.70
27188;DHT22;14708;50.872;5.306;2022-10-23T07:01:50;21.50;72.10
27188;DHT22;14708;50.872;5.306;2022-10-23T07:04:16;21.60;71.50
27188;DHT22;14708;50.872;5.306;2022-10-23T07:06:42;21.60;71.90
27188;DHT22;14708;50.872;5.306;2022-10-23T07:09:16;21.60;71.80
27188;DHT22;14708;50.872;5.306;2022-10-23T07:11:42;21.70;71.30
27188;DHT22;14708;50.872;5.306;2022-10-23T07:14:07;21.70;71.40
27188;DHT22;14708;50.872;5.306;2022-10-23T07:16:33;21.80;71.50
27188;DHT22;14708;50.872;5.306;2022-10-23T07:18:59;21.70;71.70
27188;DHT22;14708;50.872;5.306;2022-10-23T07:21:30;21.70;71.80
27188;DHT22;14708;50.872;5.306;2022-10-23T07:23:57;21.80;71.70
27188;DHT22;14708;50.872;5.306;2022-10-23T07:26:23;21.70;71.30
27188;DHT22;14708;50.872;5.306;2022-10-23T07:28:49;21.70;71.00
27188;DHT22;14708;50.872;5.306;2022-10-23T07:31:23;21.70;71.20
27188;DHT22;14708;50.872;5.306;2022-10-23T07:33:50;21.70;71.30
27188;DHT22;14708;50.872;5.306;2022-10-23T07:36:17;21.70;70.40
27188;DHT22;14708;50.872;5.306;2022-10-23T07:38:43;21.70;70.10
27188;DHT22;14708;50.872;5.306;2022-10-23T07:41:11;21.70;70.00
27188;DHT22;14708;50.872;5.306;2022-10-23T07:43:44;21.70;70.10
27188;DHT22;14708;50.872;5.306;2022-10-23T07:46:10;21.60;70.10
27188;DHT22;14708;50.872;5.306;2022-10-23T07:48:36;21.60;70.00
27188;DHT22;14708;50.872;5.306;2022-10-23T07:51:05;21.70;69.50
27188;DHT22;14708;50.872;5.306;2022-10-23T07:53:33;21.70;68.40
27188;DHT22;14708;50.872;5.306;2022-10-23T07:58:56;21.70;67.40
27188;DHT22;14708;50.872;5.306;2022-10-23T08:01:30;21.70;67.90
27188;DHT22;14708;50.872;5.306;2022-10-23T08:03:56;21.80;68.20
27188;DHT22;14708;50.872;5.306;2022-10-23T08:06:21;21.70;67.80
27188;DHT22;14708;50.872;5.306;2022-10-23T08:08:47;21.70;68.20
27188;DHT22;14708;50.872;5.306;2022-10-23T08:11:14;21.70;68.40
27188;DHT22;14708;50.872;5.306;2022-10-23T08:13:41;21.70;68.80
27188;DHT22;14708;50.872;5.306;2022-10-23T08:16:08;21.70;69.30
27188;DHT22;14708;50.872;5.306;2022-10-23T08:18:34;21.70;69.20
27188;DHT22;14708;50.872;5.306;2022-10-23T08:21:01;21.80;68.10
27188;DHT22;14708;50.872;5.306;2022-10-23T08:23:28;21.80;68.20
27188;DHT22;14708;50.872;5.306;2022-10-23T08:25:58;22.00;67.80
27188;DHT22;14708;50.872;5.306;2022-10-23T08:28:25;21.90;68.20
27188;DHT22;14708;50.872;5.306;2022-10-23T08:30:51;21.90;68.10
27188;DHT22;14708;50.872;5.306;2022-10-23T08:33:16;21.90;67.80
27188;DHT22;14708;50.872;5.306;2022-10-23T08:35:42;21.90;68.30
27188;DHT22;14708;50.872;5.306;2022-10-23T08:38:09;21.90;68.30
27188;DHT22;14708;50.872;5.306;2022-10-23T08:40:35;21.90;68.30
27188;DHT22;14708;50.872;5.306;2022-10-23T08:43:07;21.90;68.40
27188;DHT22;14708;50.872;5.306;2022-10-23T08:45:45;21.90;68.50
27188;DHT22;14708;50.872;5.306;2022-10-23T08:50:48;22.00;67.20
27188;DHT22;14708;50.872;5.306;2022-10-23T08:53:22;22.00;65.20
27188;DHT22;14708;50.872;5.306;2022-10-23T08:56:00;22.10;64.40
27188;DHT22;14708;50.872;5.306;2022-10-23T08:58:40;22.10;66.40
27188;DHT22;14708;50.872;5.306;2022-10-23T09:01:41;22.00;67.20
27188;DHT22;14708;50.872;5.306;2022-10-23T09:04:10;21.90;67.80
27188;DHT22;14708;50.872;5.306;2022-10-23T09:12:29;22.10;68.70
27188;DHT22;14708;50.872;5.306;2022-10-23T09:17:37;22.10;68.70
27188;DHT22;14708;50.872;5.306;2022-10-23T09:20:36;22.10;69.10
27188;DHT22;14708;50.872;5.306;2022-10-23T09:23:17;22.00;69.50
27188;DHT22;14708;50.872;5.306;2022-10-23T09:25:45;21.90;68.90
27188;DHT22;14708;50.872;5.306;2022-10-23T09:28:21;21.90;68.70
27188;DHT22;14708;50.872;5.306;2022-10-23T09:30:47;22.00;68.60
27188;DHT22;14708;50.872;5.306;2022-10-23T09:33:20;22.00;68.30
27188;DHT22;14708;50.872;5.306;2022-10-23T09:41:34;21.90;69.60
27188;DHT22;14708;50.872;5.306;2022-10-23T09:46:54;21.80;70.40
27188;DHT22;14708;50.872;5.306;2022-10-23T09:54:33;22.00;69.50
27188;DHT22;14708;50.872;5.306;2022-10-23T09:59:52;21.90;70.20
27188;DHT22;14708;50.872;5.306;2022-10-23T10:02:31;21.90;70.90
27188;DHT22;14708;50.872;5.306;2022-10-23T10:04:57;21.90;71.00
27188;DHT22;14708;50.872;5.306;2022-10-23T10:07:25;21.90;71.50
27188;DHT22;14708;50.872;5.306;2022-10-23T10:09:52;21.90;71.70
27188;DHT22;14708;50.872;5.306;2022-10-23T10:12:30;21.90;71.70
27188;DHT22;14708;50.872;5.306;2022-10-23T10:15:14;21.90;72.00
27188;DHT22;14708;50.872;5.306;2022-10-23T10:23:21;22.00;72.10
27188;DHT22;14708;50.872;5.306;2022-10-23T10:26:10;22.10;71.50
27188;DHT22;14708;50.872;5.306;2022-10-23T10:31:41;22.10;70.60
27188;DHT22;14708;50.872;5.306;2022-10-23T10:34:32;22.10;71.30
27188;DHT22;14708;50.872;5.306;2022-10-23T10:37:28;22.10;70.70
27188;DHT22;14708;50.872;5.306;2022-10-23T10:40:19;22.20;70.60
27188;DHT22;14708;50.872;5.306;2022-10-23T10:46:32;22.20;70.70
27188;DHT22;14708;50.872;5.306;2022-10-23T10:49:09;22.20;70.90
27188;DHT22;14708;50.872;5.306;2022-10-23T10:51:51;22.20;71.10
27188;DHT22;14708;50.872;5.306;2022-10-23T10:57:27;22.30;71.00
27188;DHT22;14708;50.872;5.306;2022-10-23T10:59:55;22.30;70.90
27188;DHT22;14708;50.872;5.306;2022-10-23T11:02:56;22.40;77.40
27188;DHT22;14708;50.872;5.306;2022-10-23T11:05:32;22.30;75.60
27188;DHT22;14708;50.872;5.306;2022-10-23T11:08:12;22.30;75.60
27188;DHT22;14708;50.872;5.306;2022-10-23T11:10:42;22.30;74.30
27188;DHT22;14708;50.872;5.306;2022-10-23T11:13:24;22.20;72.50
27188;DHT22;14708;50.872;5.306;2022-10-23T11:15:51;22.20;71.50
27188;DHT22;14708;50.872;5.306;2022-10-23T11:18:25;22.10;70.00
27188;DHT22;14708;50.872;5.306;2022-10-23T11:21:18;22.10;69.80
27188;DHT22;14708;50.872;5.306;2022-10-23T11:36:59;22.10;71.70
27188;DHT22;14708;50.872;5.306;2022-10-23T11:39:31;22.00;71.00
27188;DHT22;14708;50.872;5.306;2022-10-23T11:44:47;21.90;71.40
27188;DHT22;14708;50.872;5.306;2022-10-23T11:47:34;21.90;71.60
27188;DHT22;14708;50.872;5.306;2022-10-23T11:52:34;21.80;71.60
27188;DHT22;14708;50.872;5.306;2022-10-23T11:55:02;21.80;71.60
27188;DHT22;14708;50.872;5.306;2022-10-23T11:57:28;21.80;71.70
27188;DHT22;14708;50.872;5.306;2022-10-23T11:59:55;21.80;71.80
27188;DHT22;14708;50.872;5.306;2022-10-23T12:02:34;21.80;71.90
27188;DHT22;14708;50.872;5.306;2022-10-23T12:05:09;21.80;71.80
27188;DHT22;14708;50.872;5.306;2022-10-23T12:07:53;21.80;71.90
27188;DHT22;14708;50.872;5.306;2022-10-23T12:10:27;21.80;71.90
27188;DHT22;14708;50.872;5.306;2022-10-23T12:13:00;21.80;71.80
27188;DHT22;14708;50.872;5.306;2022-10-23T12:15:27;21.80;72.00
27188;DHT22;14708;50.872;5.306;2022-10-23T12:18:12;21.70;72.00
27188;DHT22;14708;50.872;5.306;2022-10-23T12:20:53;21.70;71.90
27188;DHT22;14708;50.872;5.306;2022-10-23T12:26:10;21.80;72.10
27188;DHT22;14708;50.872;5.306;2022-10-23T12:28:45;21.70;71.80
27188;DHT22;14708;50.872;5.306;2022-10-23T12:39:39;21.70;71.80
27188;DHT22;14708;50.872;5.306;2022-10-23T12:42:24;21.70;71.80
27188;DHT22;14708;50.872;5.306;2022-10-23T12:45:01;21.70;71.80
27188;DHT22;14708;50.872;5.306;2022-10-23T12:47:29;21.70;71.80
27188;DHT22;14708;50.872;5.306;2022-10-23T12:49:54;21.70;71.80
27188;DHT22;14708;50.872;5.306;2022-10-23T12:52:20;21.70;71.80
27188;DHT22;14708;50.872;5.306;2022-10-23T12:54:50;21.70;71.80
27188;DHT22;14708;50.872;5.306;2022-10-23T12:57:26;21.60;71.80
27188;DHT22;14708;50.872;5.306;2022-10-23T13:00:08;21.70;71.80
27188;DHT22;14708;50.872;5.306;2022-10-23T13:02:37;21.60;71.90
27188;DHT22;14708;50.872;5.306;2022-10-23T13:05:06;21.60;71.90
27188;DHT22;14708;50.872;5.306;2022-10-23T13:07:39;21.70;71.90
27188;DHT22;14708;50.872;5.306;2022-10-23T13:10:14;21.70;71.80
27188;DHT22;14708;50.872;5.306;2022-10-23T13:12:40;21.70;71.80
27188;DHT22;14708;50.872;5.306;2022-10-23T13:17:46;21.90;71.70
27188;DHT22;14708;50.872;5.306;2022-10-23T13:20:35;22.00;71.90
27188;DHT22;14708;50.872;5.306;2022-10-23T13:23:18;22.10;71.50
27188;DHT22;14708;50.872;5.306;2022-10-23T13:25:55;22.20;71.60
27188;DHT22;14708;50.872;5.306;2022-10-23T13:28:22;22.40;71.40
27188;DHT22;14708;50.872;5.306;2022-10-23T13:30:59;22.40;71.10
27188;DHT22;14708;50.872;5.306;2022-10-23T13:33:45;22.50;71.00
27188;DHT22;14708;50.872;5.306;2022-10-23T13:41:42;22.60;71.10
27188;DHT22;14708;50.872;5.306;2022-10-23T13:44:12;22.60;71.10
27188;DHT22;14708;50.872;5.306;2022-10-23T13:46:39;22.60;71.30
27188;DHT22;14708;50.872;5.306;2022-10-23T13:49:05;22.60;71.50
27188;DHT22;14708;50.872;5.306;2022-10-23T13:51:34;22.60;71.60
27188;DHT22;14708;50.872;5.306;2022-10-23T13:54:01;22.50;71.50
27188;DHT22;14708;50.872;5.306;2022-10-23T13:56:26;22.60;71.50
27188;DHT22;14708;50.872;5.306;2022-10-23T13:58:52;22.50;71.70
27188;DHT22;14708;50.872;5.306;2022-10-23T14:01:31;22.50;71.70
27188;DHT22;14708;50.872;5.306;2022-10-23T14:03:58;22.50;71.70
27188;DHT22;14708;50.872;5.306;2022-10-23T14:06:24;22.50;71.80
27188;DHT22;14708;50.872;5.306;2022-10-23T14:08:50;22.50;71.90
27188;DHT22;14708;50.872;5.306;2022-10-23T14:11:17;22.50;71.60
27188;DHT22;14708;50.872;5.306;2022-10-23T14:13:43;22.60;71.20
27188;DHT22;14708;50.872;5.306;2022-10-23T14:16:12;22.70;70.80
27188;DHT22;14708;50.872;5.306;2022-10-23T14:18:38;22.70;71.00
27188;DHT22;14708;50.872;5.306;2022-10-23T14:21:05;22.80;71.10
27188;DHT22;14708;50.872;5.306;2022-10-23T14:23:31;22.90;71.00
27188;DHT22;14708;50.872;5.306;2022-10-23T14:26:04;22.90;71.00
27188;DHT22;14708;50.872;5.306;2022-10-23T14:28:30;22.90;71.00
27188;DHT22;14708;50.872;5.306;2022-10-23T14:30:56;22.90;71.20
27188;DHT22;14708;50.872;5.306;2022-10-23T14:33:22;22.90;71.10
27188;DHT22;14708;50.872;5.306;2022-10-23T14:35:52;23.00;70.60
27188;DHT22;14708;50.872;5.306;2022-10-23T14:38:20;22.90;70.40
27188;DHT22;14708;50.872;5.306;2022-10-23T14:40:46;22.90;70.50
27188;DHT22;14708;50.872;5.306;2022-10-23T14:43:11;22.90;70.60
27188;DHT22;14708;50.872;5.306;2022-10-23T14:45:37;22.90;70.20
27188;DHT22;14708;50.872;5.306;2022-10-23T14:48:03;23.00;69.70
27188;DHT22;14708;50.872;5.306;2022-10-23T14:50:30;23.00;69.70
27188;DHT22;14708;50.872;5.306;2022-10-23T14:52:56;23.10;70.90
27188;DHT22;14708;50.872;5.306;2022-10-23T14:55:22;23.10;70.00
27188;DHT22;14708;50.872;5.306;2022-10-23T14:57:48;23.10;70.50
27188;DHT22;14708;50.872;5.306;2022-10-23T15:00:18;23.20;70.40
27188;DHT22;14708;50.872;5.306;2022-10-23T15:02:44;23.20;70.20
27188;DHT22;14708;50.872;5.306;2022-10-23T15:05:09;23.20;68.90
27188;DHT22;14708;50.872;5.306;2022-10-23T15:07:35;23.30;70.00
27188;DHT22;14708;50.872;5.306;2022-10-23T15:10:02;23.20;70.20
27188;DHT22;14708;50.872;5.306;2022-10-23T15:12:27;23.20;70.60
27188;DHT22;14708;50.872;5.306;2022-10-23T15:14:53;23.30;70.50
27188;DHT22;14708;50.872;5.306;2022-10-23T15:17:19;23.30;71.10
27188;DHT22;14708;50.872;5.306;2022-10-23T15:19:44;23.30;71.20
27188;DHT22;14708;50.872;5.306;2022-10-23T15:22:10;23.30;71.00
27188;DHT22;14708;50.872;5.306;2022-10-23T15:24:35;23.30;71.60
27188;DHT22;14708;50.872;5.306;2022-10-23T15:27:01;23.30;71.40
27188;DHT22;14708;50.872;5.306;2022-10-23T15:29:27;23.40;71.70
27188;DHT22;14708;50.872;5.306;2022-10-23T15:32:02;23.30;71.50
27188;DHT22;14708;50.872;5.306;2022-10-23T15:34:29;23.30;71.60
27188;DHT22;14708;50.872;5.306;2022-10-23T15:36:57;23.40;72.40
27188;DHT22;14708;50.872;5.306;2022-10-23T15:39:26;23.40;72.50
27188;DHT22;14708;50.872;5.306;2022-10-23T15:41:55;23.40;72.60
27188;DHT22;14708;50.872;5.306;2022-10-23T15:44:23;23.40;72.50
27188;DHT22;14708;50.872;5.306;2022-10-23T15:46:50;23.40;72.60
27188;DHT22;14708;50.872;5.306;2022-10-23T15:49:16;23.40;72.60
27188;DHT22;14708;50.872;5.306;2022-10-23T15:51:43;23.50;73.20
27188;DHT22;14708;50.872;5.306;2022-10-23T15:54:12;23.50;73.20
27188;DHT22;14708;50.872;5.306;2022-10-23T15:56:44;23.50;73.60
27188;DHT22;14708;50.872;5.306;2022-10-23T15:59:10;23.60;73.60
27188;DHT22;14708;50.872;5.306;2022-10-23T16:01:36;23.60;73.50
27188;DHT22;14708;50.872;5.306;2022-10-23T16:04:02;23.70;73.90
27188;DHT22;14708;50.872;5.306;2022-10-23T16:06:28;23.60;73.80
27188;DHT22;14708;50.872;5.306;2022-10-23T16:08:53;23.50;73.50
27188;DHT22;14708;50.872;5.306;2022-10-23T16:11:22;23.50;72.70
27188;DHT22;14708;50.872;5.306;2022-10-23T16:13:48;23.50;73.60
27188;DHT22;14708;50.872;5.306;2022-10-23T16:16:14;23.50;73.60
27188;DHT22;14708;50.872;5.306;2022-10-23T16:18:40;23.60;71.70
27188;DHT22;14708;50.872;5.306;2022-10-23T16:21:06;23.50;72.20
27188;DHT22;14708;50.872;5.306;2022-10-23T16:23:33;23.50;72.80
27188;DHT22;14708;50.872;5.306;2022-10-23T16:26:05;23.50;73.30
27188;DHT22;14708;50.872;5.306;2022-10-23T16:28:31;23.40;73.00
27188;DHT22;14708;50.872;5.306;2022-10-23T16:30:58;23.30;73.50
27188;DHT22;14708;50.872;5.306;2022-10-23T16:33:24;23.30;73.40
27188;DHT22;14708;50.872;5.306;2022-10-23T16:35:52;23.20;74.00
27188;DHT22;14708;50.872;5.306;2022-10-23T16:38:25;23.30;73.90
27188;DHT22;14708;50.872;5.306;2022-10-23T16:40:51;23.20;74.30
27188;DHT22;14708;50.872;5.306;2022-10-23T16:43:17;23.10;74.30
27188;DHT22;14708;50.872;5.306;2022-10-23T16:45:43;23.10;74.70
27188;DHT22;14708;50.872;5.306;2022-10-23T16:48:08;23.10;74.50
27188;DHT22;14708;50.872;5.306;2022-10-23T16:50:37;23.00;74.60
27188;DHT22;14708;50.872;5.306;2022-10-23T16:53:03;23.20;73.80
27188;DHT22;14708;50.872;5.306;2022-10-23T16:55:29;23.20;73.30
27188;DHT22;14708;50.872;5.306;2022-10-23T16:57:54;23.20;73.40
27188;DHT22;14708;50.872;5.306;2022-10-23T17:00:22;23.20;73.40
27188;DHT22;14708;50.872;5.306;2022-10-23T17:02:48;23.10;73.20
27188;DHT22;14708;50.872;5.306;2022-10-23T17:05:14;23.10;73.00
27188;DHT22;14708;50.872;5.306;2022-10-23T17:07:40;23.00;73.40
27188;DHT22;14708;50.872;5.306;2022-10-23T17:10:06;22.90;73.50
27188;DHT22;14708;50.872;5.306;2022-10-23T17:12:31;22.90;73.80
27188;DHT22;14708;50.872;5.306;2022-10-23T17:14:57;22.80;74.20
27188;DHT22;14708;50.872;5.306;2022-10-23T17:17:23;22.90;74.10
27188;DHT22;14708;50.872;5.306;2022-10-23T17:19:48;22.80;74.00
27188;DHT22;14708;50.872;5.306;2022-10-23T17:22:16;22.80;74.20
27188;DHT22;14708;50.872;5.306;2022-10-23T17:24:45;22.80;73.90
27188;DHT22;14708;50.872;5.306;2022-10-23T17:27:11;22.80;73.60
27188;DHT22;14708;50.872;5.306;2022-10-23T17:29:37;22.80;74.00
27188;DHT22;14708;50.872;5.306;2022-10-23T17:32:03;22.80;73.80